sensor_id;sensor_type;location;lat;lon;timestamp;P1;durP1;ratioP1;P2;durP2;ratioP2
11171;SDS011;5642;50.830;12.082;2022-10-23T00:02:02;2.75;;;2.55;;
11171;SDS011;5642;50.830;12.082;2022-10-23T00:04:29;2.60;;;2.33;;
11171;SDS011;5642;50.830;12.082;2022-10-23T00:06:56;2.42;;;2.22;;
11171;SDS011;5642;50.830;12.082;2022-10-23T00:09:24;2.50;;;2.30;;
11171;SDS011;5642;50.830;12.082;2022-10-23T00:11:51;2.63;;;2.00;;
11171;SDS011;5642;50.830;12.082;2022-10-23T00:14:19;3.22;;;2.92;;
11171;SDS011;5642;50.830;12.082;2022-10-23T00:16:49;4.30;;;3.13;;
11171;SDS011;5642;50.830;12.082;2022-10-23T00:19:16;3.42;;;3.13;;
11171;SDS011;5642;50.830;12.082;2022-10-23T00:21:42;7.10;;;5.13;;
11171;SDS011;5642;50.830;12.082;2022-10-23T00:24:10;4.35;;;3.95;;
11171;SDS011;5642;50.830;12.082;2022-10-23T00:26:36;4.28;;;3.40;;
11171;SDS011;5642;50.830;12.082;2022-10-23T00:29:07;3.20;;;2.90;;
11171;SDS011;5642;50.830;12.082;2022-10-23T00:31:34;3.75;;;3.13;;
11171;SDS011;5642;50.830;12.082;2022-10-23T00:34:03;4.43;;;3.40;;
11171;SDS011;5642;50.830;12.082;2022-10-23T00:36:42;3.55;;;3.13;;
11171;SDS011;5642;50.830;12.082;2022-10-23T00:39:08;4.05;;;3.65;;
11171;SDS011;5642;50.830;12.082;2022-10-23T00:41:41;3.50;;;3.20;;
11171;SDS011;5642;50.830;12.082;2022-10-23T00:46:47;4.75;;;3.53;;
11171;SDS011;5642;50.830;12.082;2022-10-23T00:49:15;4.30;;;3.90;;
11171;SDS011;5642;50.830;12.082;2022-10-23T00:51:46;4.60;;;3.70;;
11171;SDS011;5642;50.830;12.082;2022-10-23T00:54:17;4.05;;;3.75;;
11171;SDS011;5642;50.830;12.082;2022-10-23T00:56:51;3.22;;;2.92;;
11171;SDS011;5642;50.830;12.082;2022-10-23T00:59:22;3.75;;;2.80;;
11171;SDS011;5642;50.830;12.082;2022-10-23T01:01:54;3.50;;;3.15;;
11171;SDS011;5642;50.830;12.082;2022-10-23T01:04:22;3.72;;;3.33;;
11171;SDS011;5642;50.830;12.082;2022-10-23T01:06:56;3.33;;;2.70;;
11171;SDS011;5642;50.830;12.082;2022-10-23T01:17:55;5.07;;;3.90;;
11171;SDS011;5642;50.830;12.082;2022-10-23T01:20:45;3.40;;;3.10;;
11171;SDS011;5642;50.830;12.082;2022-10-23T01:29:37;6.38;;;3.38;;
11171;SDS011;5642;50.830;12.082;2022-10-23T01:35:11;4.03;;;3.63;;
11171;SDS011;5642;50.830;12.082;2022-10-23T01:37:45;4.22;;;3.75;;
11171;SDS011;5642;50.830;12.082;2022-10-23T01:40:19;5.18;;;3.97;;
11171;SDS011;5642;50.830;12.082;2022-10-23T01:43:10;3.63;;;3.33;;
11171;SDS011;5642;50.830;12.082;2022-10-23T01:46:06;3.17;;;2.88;;
11171;SDS011;5642;50.830;12.082;2022-10-23T01:48:34;2.25;;;2.15;;
11171;SDS011;5642;50.830;12.082;2022-10-23T01:51:07;2.50;;;2.30;;
11171;SDS011;5642;50.830;12.082;2022-10-23T01:53:39;3.10;;;2.90;;
11171;SDS011;5642;50.830;12.082;2022-10-23T01:56:14;3.70;;;3.40;;
11171;SDS011;5642;50.830;12.082;2022-10-23T01:58:46;3.90;;;3.03;;
11171;SDS011;5642;50.830;12.082;2022-10-23T02:01:19;5.38;;;3.72;;
11171;SDS011;5642;50.830;12.082;2022-10-23T02:03:50;4.45;;;3.53;;
11171;SDS011;5642;50.830;12.082;2022-10-23T02:06:20;4.53;;;3.85;;
11171;SDS011;5642;50.830;12.082;2022-10-23T02:08:47;3.10;;;2.80;;
11171;SDS011;5642;50.830;12.082;2022-10-23T02:11:18;3.00;;;2.70;;
11171;SDS011;5642;50.830;12.082;2022-10-23T02:16:53;3.00;;;2.80;;
11171;SDS011;5642;50.830;12.082;2022-10-23T02:19:24;3.00;;;2.70;;
11171;SDS011;5642;50.830;12.082;2022-10-23T02:22:10;3.28;;;2.97;;
11171;SDS011;5642;50.830;12.082;2022-10-23T02:25:12;2.95;;;2.75;;
11171;SDS011;5642;50.830;12.082;2022-10-23T02:28:10;2.72;;;2.53;;
11171;SDS011;5642;50.830;12.082;2022-10-23T02:30:42;2.17;;;2.03;;
11171;SDS011;5642;50.830;12.082;2022-10-23T02:33:13;3.22;;;2.50;;
11171;SDS011;5642;50.830;12.082;2022-10-23T02:35:41;2.63;;;2.42;;
11171;SDS011;5642;50.830;12.082;2022-10-23T02:40:56;2.33;;;2.13;;
11171;SDS011;5642;50.830;12.082;2022-10-23T02:43:41;6.40;;;2.40;;
11171;SDS011;5642;50.830;12.082;2022-10-23T02:49:44;2.50;;;2.22;;
11171;SDS011;5642;50.830;12.082;2022-10-23T03:00:57;1.60;;;1.50;;
11171;SDS011;5642;50.830;12.082;2022-10-23T03:03:32;1.60;;;1.50;;
11171;SDS011;5642;50.830;12.082;2022-10-23T03:06:06;2.08;;;1.63;;
11171;SDS011;5642;50.830;12.082;2022-10-23T03:11:33;1.98;;;1.77;;
11171;SDS011;5642;50.830;12.082;2022-10-23T03:14:00;1.80;;;1.70;;
11171;SDS011;5642;50.830;12.082;2022-10-23T03:16:27;1.77;;;1.67;;
11171;SDS011;5642;50.830;12.082;2022-10-23T03:18:54;1.85;;;1.70;;
11171;SDS011;5642;50.830;12.082;2022-10-23T03:21:22;2.03;;;1.83;;
11171;SDS011;5642;50.830;12.082;2022-10-23T03:23:49;1.50;;;1.40;;
11171;SDS011;5642;50.830;12.082;2022-10-23T03:26:18;1.30;;;1.20;;
11171;SDS011;5642;50.830;12.082;2022-10-23T03:28:45;1.30;;;1.20;;
11171;SDS011;5642;50.830;12.082;2022-10-23T03:31:12;1.40;;;1.30;;
11171;SDS011;5642;50.830;12.082;2022-10-23T03:33:41;3.75;;;1.40;;
11171;SDS011;5642;50.830;12.082;2022-10-23T03:36:11;0.95;;;0.95;;
11171;SDS011;5642;50.830;12.082;2022-10-23T03:38:38;1.00;;;1.00;;
11171;SDS011;5642;50.830;12.082;2022-10-23T03:41:05;1.27;;;1.17;;
11171;SDS011;5642;50.830;12.082;2022-10-23T03:43:33;1.15;;;1.00;;
11171;SDS011;5642;50.830;12.082;2022-10-23T03:46:00;0.93;;;0.93;;
11171;SDS011;5642;50.830;12.082;2022-10-23T03:48:28;1.48;;;1.30;;
11171;SDS011;5642;50.830;12.082;2022-10-23T03:50:55;1.20;;;1.20;;
11171;SDS011;5642;50.830;12.082;2022-10-23T03:53:22;1.15;;;1.15;;
11171;SDS011;5642;50.830;12.082;2022-10-23T03:55:50;1.00;;;1.00;;
11171;SDS011;5642;50.830;12.082;2022-10-23T03:58:17;1.10;;;1.00;;
11171;SDS011;5642;50.830;12.082;2022-10-23T04:00:44;1.23;;;1.13;;
11171;SDS011;5642;50.830;12.082;2022-10-23T04:03:12;1.20;;;1.10;;
11171;SDS011;5642;50.830;12.082;2022-10-23T04:05:40;1.45;;;1.35;;
11171;SDS011;5642;50.830;12.082;2022-10-23T04:08:10;1.30;;;1.20;;
11171;SDS011;5642;50.830;12.082;2022-10-23T04:10:37;1.40;;;1.30;;
11171;SDS011;5642;50.830;12.082;2022-10-23T04:13:04;1.20;;;1.10;;
11171;SDS011;5642;50.830;12.082;2022-10-23T04:15:30;1.15;;;1.08;;
11171;SDS011;5642;50.830;12.082;2022-10-23T04:17:58;1.25;;;1.10;;
11171;SDS011;5642;50.830;12.082;2022-10-23T04:20:25;1.20;;;1.10;;
11171;SDS011;5642;50.830;12.082;2022-10-23T04:22:52;1.60;;;1.20;;
11171;SDS011;5642;50.830;12.082;2022-10-23T04:25:20;1.35;;;1.25;;
11171;SDS011;5642;50.830;12.082;2022-10-23T04:27:47;1.38;;;1.15;;
11171;SDS011;5642;50.830;12.082;2022-10-23T04:30:14;1.40;;;1.30;;
11171;SDS011;5642;50.830;12.082;2022-10-23T04:32:43;1.45;;;1.35;;
11171;SDS011;5642;50.830;12.082;2022-10-23T04:35:16;1.35;;;1.25;;
11171;SDS011;5642;50.830;12.082;2022-10-23T04:37:44;1.33;;;1.20;;
11171;SDS011;5642;50.830;12.082;2022-10-23T04:40:10;1.10;;;1.10;;
11171;SDS011;5642;50.830;12.082;2022-10-23T04:42:38;1.50;;;1.40;;
11171;SDS011;5642;50.830;12.082;2022-10-23T04:45:05;1.35;;;1.30;;
11171;SDS011;5642;50.830;12.082;2022-10-23T04:47:33;1.65;;;1.10;;
11171;SDS011;5642;50.830;12.082;2022-10-23T04:50:01;1.50;;;1.40;;
11171;SDS011;5642;50.830;12.082;2022-10-23T04:52:31;1.40;;;1.30;;
11171;SDS011;5642;50.830;12.082;2022-10-23T04:54:59;1.77;;;1.30;;
11171;SDS011;5642;50.830;12.082;2022-10-23T04:57:25;1.42;;;1.33;;
11171;SDS011;5642;50.830;12.082;2022-10-23T04:59:52;1.10;;;1.10;;
11171;SDS011;5642;50.830;12.082;2022-10-23T05:02:20;1.02;;;1.02;;
11171;SDS011;5642;50.830;12.082;2022-10-23T05:04:47;1.10;;;1.00;;
11171;SDS011;5642;50.830;12.082;2022-10-23T05:07:15;1.40;;;1.30;;
11171;SDS011;5642;50.830;12.082;2022-10-23T05:09:42;1.20;;;1.10;;
11171;SDS011;5642;50.830;12.082;2022-10-23T05:12:09;1.30;;;1.20;;
11171;SDS011;5642;50.830;12.082;2022-10-23T05:14:36;2.10;;;1.30;;
11171;SDS011;5642;50.830;12.082;2022-10-23T05:17:04;1.30;;;1.20;;
11171;SDS011;5642;50.830;12.082;2022-10-23T05:19:48;1.17;;;1.10;;
11171;SDS011;5642;50.830;12.082;2022-10-23T05:22:21;1.50;;;1.40;;
11171;SDS011;5642;50.830;12.082;2022-10-23T05:24:52;2.35;;;1.77;;
11171;SDS011;5642;50.830;12.082;2022-10-23T05:27:23;1.67;;;1.58;;
11171;SDS011;5642;50.830;12.082;2022-10-23T05:29:49;2.58;;;1.98;;
11171;SDS011;5642;50.830;12.082;2022-10-23T05:32:16;1.88;;;1.77;;
11171;SDS011;5642;50.830;12.082;2022-10-23T05:34:43;2.25;;;2.03;;
11171;SDS011;5642;50.830;12.082;2022-10-23T05:37:11;2.53;;;2.15;;
11171;SDS011;5642;50.830;12.082;2022-10-23T05:39:41;2.78;;;1.98;;
11171;SDS011;5642;50.830;12.082;2022-10-23T05:42:08;3.42;;;2.17;;
11171;SDS011;5642;50.830;12.082;2022-10-23T05:44:35;4.53;;;2.03;;
11171;SDS011;5642;50.830;12.082;2022-10-23T05:47:01;2.95;;;2.15;;
11171;SDS011;5642;50.830;12.082;2022-10-23T05:49:28;3.22;;;2.85;;
11171;SDS011;5642;50.830;12.082;2022-10-23T05:51:56;4.38;;;2.88;;
11171;SDS011;5642;50.830;12.082;2022-10-23T05:54:23;3.63;;;2.50;;
11171;SDS011;5642;50.830;12.082;2022-10-23T05:56:50;2.38;;;2.17;;
11171;SDS011;5642;50.830;12.082;2022-10-23T05:59:18;5.93;;;2.30;;
11171;SDS011;5642;50.830;12.082;2022-10-23T06:01:47;5.50;;;2.83;;
11171;SDS011;5642;50.830;12.082;2022-10-23T06:04:15;3.38;;;2.03;;
11171;SDS011;5642;50.830;12.082;2022-10-23T06:06:43;2.35;;;2.15;;
11171;SDS011;5642;50.830;12.082;2022-10-23T06:09:14;2.92;;;2.10;;
11171;SDS011;5642;50.830;12.082;2022-10-23T06:11:41;3.65;;;2.30;;
11171;SDS011;5642;50.830;12.082;2022-10-23T06:14:08;2.50;;;2.30;;
11171;SDS011;5642;50.830;12.082;2022-10-23T06:16:35;3.05;;;2.10;;
11171;SDS011;5642;50.830;12.082;2022-10-23T06:19:01;2.60;;;2.30;;
11171;SDS011;5642;50.830;12.082;2022-10-23T06:21:28;3.60;;;2.40;;
11171;SDS011;5642;50.830;12.082;2022-10-23T06:24:00;3.45;;;2.30;;
11171;SDS011;5642;50.830;12.082;2022-10-23T06:26:27;2.00;;;1.90;;
11171;SDS011;5642;50.830;12.082;2022-10-23T06:28:53;1.95;;;1.85;;
11171;SDS011;5642;50.830;12.082;2022-10-23T06:31:22;2.70;;;1.80;;
11171;SDS011;5642;50.830;12.082;2022-10-23T06:33:51;2.10;;;1.90;;
11171;SDS011;5642;50.830;12.082;2022-10-23T06:36:23;1.77;;;1.67;;
11171;SDS011;5642;50.830;12.082;2022-10-23T06:38:52;1.98;;;1.88;;
11171;SDS011;5642;50.830;12.082;2022-10-23T06:41:23;1.92;;;1.83;;
11171;SDS011;5642;50.830;12.082;2022-10-23T06:43:51;1.75;;;1.65;;
11171;SDS011;5642;50.830;12.082;2022-10-23T06:46:19;1.85;;;1.75;;
11171;SDS011;5642;50.830;12.082;2022-10-23T06:48:47;1.50;;;1.40;;
11171;SDS011;5642;50.830;12.082;2022-10-23T06:51:16;1.23;;;1.17;;
11171;SDS011;5642;50.830;12.082;2022-10-23T06:53:44;1.40;;;1.30;;
11171;SDS011;5642;50.830;12.082;2022-10-23T06:56:12;1.40;;;1.30;;
11171;SDS011;5642;50.830;12.082;2022-10-23T06:58:40;1.52;;;1.10;;
11171;SDS011;5642;50.830;12.082;2022-10-23T07:01:11;1.20;;;1.10;;
11171;SDS011;5642;50.830;12.082;2022-10-23T07:03:39;1.00;;;1.00;;
11171;SDS011;5642;50.830;12.082;2022-10-23T07:06:07;0.80;;;0.80;;
11171;SDS011;5642;50.830;12.082;2022-10-23T07:08:39;1.00;;;1.00;;
11171;SDS011;5642;50.830;12.082;2022-10-23T07:11:07;0.88;;;0.88;;
11171;SDS011;5642;50.830;12.082;2022-10-23T07:13:38;0.80;;;0.80;;
11171;SDS011;5642;50.830;12.082;2022-10-23T07:16:17;0.90;;;0.90;;
11171;SDS011;5642;50.830;12.082;2022-10-23T07:18:49;1.00;;;1.00;;
11171;SDS011;5642;50.830;12.082;2022-10-23T07:21:28;0.80;;;0.80;;
11171;SDS011;5642;50.830;12.082;2022-10-23T07:23:56;0.93;;;0.93;;
11171;SDS011;5642;50.830;12.082;2022-10-23T07:26:26;1.08;;;1.08;;
11171;SDS011;5642;50.830;12.082;2022-10-23T07:28:58;0.98;;;0.98;;
11171;SDS011;5642;50.830;12.082;2022-10-23T07:31:24;0.77;;;0.77;;
11171;SDS011;5642;50.830;12.082;2022-10-23T07:33:53;0.90;;;0.90;;
11171;SDS011;5642;50.830;12.082;2022-10-23T07:36:20;1.23;;;1.13;;
11171;SDS011;5642;50.830;12.082;2022-10-23T07:38:47;1.42;;;1.33;;
11171;SDS011;5642;50.830;12.082;2022-10-23T07:41:16;5.43;;;4.65;;
11171;SDS011;5642;50.830;12.082;2022-10-23T07:43:45;5.38;;;3.97;;
11171;SDS011;5642;50.830;12.082;2022-10-23T07:46:12;3.85;;;3.45;;
11171;SDS011;5642;50.830;12.082;2022-10-23T07:48:40;2.65;;;2.45;;
11171;SDS011;5642;50.830;12.082;2022-10-23T07:51:12;2.17;;;1.98;;
11171;SDS011;5642;50.830;12.082;2022-10-23T07:53:42;1.50;;;1.40;;
11171;SDS011;5642;50.830;12.082;2022-10-23T07:56:15;1.58;;;1.48;;
11171;SDS011;5642;50.830;12.082;2022-10-23T07:58:46;1.40;;;1.30;;
11171;SDS011;5642;50.830;12.082;2022-10-23T08:01:14;1.23;;;1.20;;
11171;SDS011;5642;50.830;12.082;2022-10-23T08:03:44;1.27;;;1.17;;
11171;SDS011;5642;50.830;12.082;2022-10-23T08:06:12;1.20;;;1.20;;
11171;SDS011;5642;50.830;12.082;2022-10-23T08:08:42;1.15;;;1.15;;
11171;SDS011;5642;50.830;12.082;2022-10-23T08:11:12;1.20;;;1.10;;
11171;SDS011;5642;50.830;12.082;2022-10-23T08:13:42;0.90;;;0.90;;
11171;SDS011;5642;50.830;12.082;2022-10-23T08:16:10;1.15;;;1.00;;
11171;SDS011;5642;50.830;12.082;2022-10-23T08:18:37;1.10;;;1.10;;
11171;SDS011;5642;50.830;12.082;2022-10-23T08:21:12;1.02;;;1.02;;
11171;SDS011;5642;50.830;12.082;2022-10-23T08:23:40;0.90;;;0.90;;
11171;SDS011;5642;50.830;12.082;2022-10-23T08:26:12;1.05;;;0.95;;
11171;SDS011;5642;50.830;12.082;2022-10-23T08:28:40;1.10;;;1.00;;
11171;SDS011;5642;50.830;12.082;2022-10-23T08:31:12;1.23;;;1.13;;
11171;SDS011;5642;50.830;12.082;2022-10-23T08:33:42;1.42;;;1.00;;
11171;SDS011;5642;50.830;12.082;2022-10-23T08:36:18;0.90;;;0.90;;
11171;SDS011;5642;50.830;12.082;2022-10-23T08:38:50;1.10;;;1.10;;
11171;SDS011;5642;50.830;12.082;2022-10-23T08:41:27;1.55;;;0.98;;
11171;SDS011;5642;50.830;12.082;2022-10-23T08:52:30;0.90;;;0.90;;
11171;SDS011;5642;50.830;12.082;2022-10-23T08:55:20;0.85;;;0.85;;
11171;SDS011;5642;50.830;12.082;2022-10-23T09:00:29;0.90;;;0.90;;
11171;SDS011;5642;50.830;12.082;2022-10-23T09:03:00;0.90;;;0.90;;
11171;SDS011;5642;50.830;12.082;2022-10-23T09:05:47;1.10;;;0.80;;
11171;SDS011;5642;50.830;12.082;2022-10-23T09:17:28;0.70;;;0.70;;
11171;SDS011;5642;50.830;12.082;2022-10-23T09:20:04;0.80;;;0.80;;
11171;SDS011;5642;50.830;12.082;2022-10-23T09:22:43;0.70;;;0.70;;
11171;SDS011;5642;50.830;12.082;2022-10-23T09:25:14;1.10;;;1.10;;
11171;SDS011;5642;50.830;12.082;2022-10-23T09:27:48;0.77;;;0.77;;
11171;SDS011;5642;50.830;12.082;2022-10-23T09:30:32;1.42;;;0.98;;
11171;SDS011;5642;50.830;12.082;2022-10-23T09:33:23;0.77;;;0.77;;
11171;SDS011;5642;50.830;12.082;2022-10-23T09:35:54;0.70;;;0.70;;
11171;SDS011;5642;50.830;12.082;2022-10-23T09:38:35;0.75;;;0.70;;
11171;SDS011;5642;50.830;12.082;2022-10-23T09:41:10;0.50;;;0.50;;
11171;SDS011;5642;50.830;12.082;2022-10-23T09:44:14;0.73;;;0.73;;
11171;SDS011;5642;50.830;12.082;2022-10-23T09:46:44;0.85;;;0.70;;
11171;SDS011;5642;50.830;12.082;2022-10-23T09:49:31;0.65;;;0.65;;
11171;SDS011;5642;50.830;12.082;2022-10-23T09:54:38;0.95;;;0.80;;
11171;SDS011;5642;50.830;12.082;2022-10-23T09:57:29;0.60;;;0.60;;
11171;SDS011;5642;50.830;12.082;2022-10-23T10:00:01;0.90;;;0.55;;
11171;SDS011;5642;50.830;12.082;2022-10-23T10:03:05;0.80;;;0.80;;
11171;SDS011;5642;50.830;12.082;2022-10-23T10:05:37;0.65;;;0.65;;
11171;SDS011;5642;50.830;12.082;2022-10-23T10:11:00;0.70;;;0.70;;
11171;SDS011;5642;50.830;12.082;2022-10-23T10:14:07;0.65;;;0.65;;
11171;SDS011;5642;50.830;12.082;2022-10-23T10:40:50;0.82;;;0.82;;
11171;SDS011;5642;50.830;12.082;2022-10-23T10:43:30;1.00;;;0.90;;
11171;SDS011;5642;50.830;12.082;2022-10-23T10:49:42;0.85;;;0.80;;
11171;SDS011;5642;50.830;12.082;2022-10-23T10:54:58;1.13;;;0.80;;
11171;SDS011;5642;50.830;12.082;2022-10-23T10:57:41;0.80;;;0.80;;
11171;SDS011;5642;50.830;12.082;2022-10-23T11:00:12;0.88;;;0.88;;
11171;SDS011;5642;50.830;12.082;2022-10-23T11:02:50;0.90;;;0.90;;
11171;SDS011;5642;50.830;12.082;2022-10-23T11:05:32;0.82;;;0.82;;
11171;SDS011;5642;50.830;12.082;2022-10-23T11:08:04;0.95;;;0.95;;
11171;SDS011;5642;50.830;12.082;2022-10-23T11:10:34;1.27;;;1.17;;
11171;SDS011;5642;50.830;12.082;2022-10-23T11:13:05;1.00;;;1.00;;
11171;SDS011;5642;50.830;12.082;2022-10-23T11:16:00;1.00;;;1.00;;
11171;SDS011;5642;50.830;12.082;2022-10-23T11:18:31;0.95;;;0.95;;
11171;SDS011;5642;50.830;12.082;2022-10-23T11:34:51;1.20;;;1.10;;
11171;SDS011;5642;50.830;12.082;2022-10-23T11:37:20;1.08;;;0.98;;
11171;SDS011;5642;50.830;12.082;2022-10-23T11:42:49;1.23;;;1.13;;
11171;SDS011;5642;50.830;12.082;2022-10-23T11:48:18;1.00;;;1.00;;
11171;SDS011;5642;50.830;12.082;2022-10-23T11:51:29;0.80;;;0.80;;
11171;SDS011;5642;50.830;12.082;2022-10-23T12:02:30;0.85;;;0.85;;
11171;SDS011;5642;50.830;12.082;2022-10-23T12:05:07;0.85;;;0.85;;
11171;SDS011;5642;50.830;12.082;2022-10-23T12:07:55;0.90;;;0.90;;
11171;SDS011;5642;50.830;12.082;2022-10-23T12:10:28;0.70;;;0.70;;
11171;SDS011;5642;50.830;12.082;2022-10-23T12:15:56;0.80;;;0.80;;
11171;SDS011;5642;50.830;12.082;2022-10-23T12:18:24;0.80;;;0.80;;
11171;SDS011;5642;50.830;12.082;2022-10-23T12:20:59;0.70;;;0.70;;
11171;SDS011;5642;50.830;12.082;2022-10-23T12:28:46;0.70;;;0.70;;
11171;SDS011;5642;50.830;12.082;2022-10-23T12:39:25;1.10;;;1.00;;
11171;SDS011;5642;50.830;12.082;2022-10-23T12:41:52;0.73;;;0.73;;
11171;SDS011;5642;50.830;12.082;2022-10-23T12:44:18;0.70;;;0.70;;
11171;SDS011;5642;50.830;12.082;2022-10-23T12:46:53;3.63;;;2.45;;
11171;SDS011;5642;50.830;12.082;2022-10-23T12:49:23;2.67;;;1.88;;
11171;SDS011;5642;50.830;12.082;2022-10-23T12:54:31;2.00;;;1.50;;
11171;SDS011;5642;50.830;12.082;2022-10-23T12:57:39;1.35;;;1.25;;
11171;SDS011;5642;50.830;12.082;2022-10-23T13:00:16;0.90;;;0.90;;
11171;SDS011;5642;50.830;12.082;2022-10-23T13:02:44;0.60;;;0.60;;
11171;SDS011;5642;50.830;12.082;2022-10-23T13:05:11;0.55;;;0.55;;
11171;SDS011;5642;50.830;12.082;2022-10-23T13:07:44;0.60;;;0.60;;
11171;SDS011;5642;50.830;12.082;2022-10-23T13:10:14;0.70;;;0.70;;
11171;SDS011;5642;50.830;12.082;2022-10-23T13:12:42;0.70;;;0.60;;
11171;SDS011;5642;50.830;12.082;2022-10-23T13:15:18;0.60;;;0.55;;
11171;SDS011;5642;50.830;12.082;2022-10-23T13:17:46;0.55;;;0.55;;
11171;SDS011;5642;50.830;12.082;2022-10-23T13:22:42;0.70;;;0.50;;
11171;SDS011;5642;50.830;12.082;2022-10-23T13:27:47;0.77;;;0.50;;
11171;SDS011;5642;50.830;12.082;2022-10-23T13:30:35;0.50;;;0.50;;
11171;SDS011;5642;50.830;12.082;2022-10-23T13:35:57;0.50;;;0.50;;
11171;SDS011;5642;50.830;12.082;2022-10-23T13:38:29;0.50;;;0.50;;
11171;SDS011;5642;50.830;12.082;2022-10-23T13:40:58;0.60;;;0.50;;
11171;SDS011;5642;50.830;12.082;2022-10-23T13:43:29;0.40;;;0.40;;
11171;SDS011;5642;50.830;12.082;2022-10-23T13:45:57;0.60;;;0.50;;
11171;SDS011;5642;50.830;12.082;2022-10-23T13:48:24;0.70;;;0.70;;
11171;SDS011;5642;50.830;12.082;2022-10-23T13:50:52;0.80;;;0.55;;
11171;SDS011;5642;50.830;12.082;2022-10-23T13:53:23;0.98;;;0.65;;
11171;SDS011;5642;50.830;12.082;2022-10-23T13:55:50;1.80;;;0.60;;
11171;SDS011;5642;50.830;12.082;2022-10-23T13:58:21;0.52;;;0.50;;
11171;SDS011;5642;50.830;12.082;2022-10-23T14:00:48;0.50;;;0.50;;
11171;SDS011;5642;50.830;12.082;2022-10-23T14:03:16;0.55;;;0.55;;
11171;SDS011;5642;50.830;12.082;2022-10-23T14:05:44;0.60;;;0.60;;
11171;SDS011;5642;50.830;12.082;2022-10-23T14:08:11;0.65;;;0.65;;
11171;SDS011;5642;50.830;12.082;2022-10-23T14:10:42;0.70;;;0.70;;
11171;SDS011;5642;50.830;12.082;2022-10-23T14:13:09;0.75;;;0.75;;
11171;SDS011;5642;50.830;12.082;2022-10-23T14:15:36;0.57;;;0.57;;
11171;SDS011;5642;50.830;12.082;2022-10-23T14:18:03;0.65;;;0.65;;
11171;SDS011;5642;50.830;12.082;2022-10-23T14:20:31;0.65;;;0.63;;
11171;SDS011;5642;50.830;12.082;2022-10-23T14:23:01;0.70;;;0.70;;
11171;SDS011;5642;50.830;12.082;2022-10-23T14:25:28;0.60;;;0.60;;
11171;SDS011;5642;50.830;12.082;2022-10-23T14:27:55;0.75;;;0.75;;
11171;SDS011;5642;50.830;12.082;2022-10-23T14:30:21;0.60;;;0.60;;
11171;SDS011;5642;50.830;12.082;2022-10-23T14:32:47;0.70;;;0.70;;
11171;SDS011;5642;50.830;12.082;2022-10-23T14:35:15;0.60;;;0.60;;
11171;SDS011;5642;50.830;12.082;2022-10-23T14:37:44;0.73;;;0.73;;
11171;SDS011;5642;50.830;12.082;2022-10-23T14:40:12;0.90;;;0.90;;
11171;SDS011;5642;50.830;12.082;2022-10-23T14:42:38;0.60;;;0.60;;
11171;SDS011;5642;50.830;12.082;2022-10-23T14:45:10;0.82;;;0.80;;
11171;SDS011;5642;50.830;12.082;2022-10-23T14:48:04;0.55;;;0.55;;
11171;SDS011;5642;50.830;12.082;2022-10-23T14:50:30;0.90;;;0.75;;
11171;SDS011;5642;50.830;12.082;2022-10-23T14:52:57;0.70;;;0.70;;
11171;SDS011;5642;50.830;12.082;2022-10-23T14:55:23;0.70;;;0.70;;
11171;SDS011;5642;50.830;12.082;2022-10-23T14:57:54;0.70;;;0.70;;
11171;SDS011;5642;50.830;12.082;2022-10-23T15:00:22;0.60;;;0.60;;
11171;SDS011;5642;50.830;12.082;2022-10-23T15:02:51;1.00;;;0.75;;
11171;SDS011;5642;50.830;12.082;2022-10-23T15:05:20;0.70;;;0.70;;
11171;SDS011;5642;50.830;12.082;2022-10-23T15:07:47;0.80;;;0.80;;
11171;SDS011;5642;50.830;12.082;2022-10-23T15:10:13;0.70;;;0.70;;
11171;SDS011;5642;50.830;12.082;2022-10-23T15:12:40;0.82;;;0.73;;
11171;SDS011;5642;50.830;12.082;2022-10-23T15:15:06;0.70;;;0.70;;
11171;SDS011;5642;50.830;12.082;2022-10-23T15:17:33;2.05;;;0.90;;
11171;SDS011;5642;50.830;12.082;2022-10-23T15:20:08;0.60;;;0.60;;
11171;SDS011;5642;50.830;12.082;2022-10-23T15:22:34;0.57;;;0.57;;
11171;SDS011;5642;50.830;12.082;2022-10-23T15:25:08;0.90;;;0.90;;
11171;SDS011;5642;50.830;12.082;2022-10-23T15:27:44;0.60;;;0.60;;
11171;SDS011;5642;50.830;12.082;2022-10-23T15:30:10;1.08;;;1.00;;
11171;SDS011;5642;50.830;12.082;2022-10-23T15:32:37;1.13;;;1.02;;
11171;SDS011;5642;50.830;12.082;2022-10-23T15:35:03;1.17;;;0.75;;
11171;SDS011;5642;50.830;12.082;2022-10-23T15:37:31;0.73;;;0.73;;
11171;SDS011;5642;50.830;12.082;2022-10-23T15:39:57;0.80;;;0.80;;
11171;SDS011;5642;50.830;12.082;2022-10-23T15:42:24;0.80;;;0.80;;
11171;SDS011;5642;50.830;12.082;2022-10-23T15:44:50;1.75;;;0.90;;
11171;SDS011;5642;50.830;12.082;2022-10-23T15:47:16;0.95;;;0.80;;
11171;SDS011;5642;50.830;12.082;2022-10-23T15:49:43;0.75;;;0.75;;
11171;SDS011;5642;50.830;12.082;2022-10-23T15:52:09;1.40;;;1.05;;
11171;SDS011;5642;50.830;12.082;2022-10-23T15:54:36;0.70;;;0.70;;
11171;SDS011;5642;50.830;12.082;2022-10-23T15:57:02;0.95;;;0.80;;
11171;SDS011;5642;50.830;12.082;2022-10-23T15:59:29;0.85;;;0.85;;
11171;SDS011;5642;50.830;12.082;2022-10-23T16:01:57;0.75;;;0.75;;
11171;SDS011;5642;50.830;12.082;2022-10-23T16:04:23;0.82;;;0.82;;
11171;SDS011;5642;50.830;12.082;2022-10-23T16:06:49;0.70;;;0.70;;
11171;SDS011;5642;50.830;12.082;2022-10-23T16:09:15;0.90;;;0.90;;
11171;SDS011;5642;50.830;12.082;2022-10-23T16:11:42;1.33;;;0.70;;
11171;SDS011;5642;50.830;12.082;2022-10-23T16:14:11;0.80;;;0.80;;
11171;SDS011;5642;50.830;12.082;2022-10-23T16:16:41;1.30;;;0.90;;
11171;SDS011;5642;50.830;12.082;2022-10-23T16:19:08;2.53;;;1.90;;
11171;SDS011;5642;50.830;12.082;2022-10-23T16:21:35;2.35;;;1.95;;
11171;SDS011;5642;50.830;12.082;2022-10-23T16:24:04;2.65;;;2.13;;
11171;SDS011;5642;50.830;12.082;2022-10-23T16:26:34;1.95;;;1.73;;
11171;SDS011;5642;50.830;12.082;2022-10-23T16:29:02;2.40;;;1.75;;
11171;SDS011;5642;50.830;12.082;2022-10-23T16:31:37;2.05;;;1.83;;
11171;SDS011;5642;50.830;12.082;2022-10-23T16:34:03;1.90;;;1.70;;
11171;SDS011;5642;50.830;12.082;2022-10-23T16:36:33;1.60;;;1.50;;
11171;SDS011;5642;50.830;12.082;2022-10-23T16:39:14;1.42;;;1.30;;
11171;SDS011;5642;50.830;12.082;2022-10-23T16:41:43;2.40;;;1.25;;
11171;SDS011;5642;50.830;12.082;2022-10-23T16:44:09;1.08;;;0.98;;
11171;SDS011;5642;50.830;12.082;2022-10-23T16:46:36;1.10;;;1.00;;
11171;SDS011;5642;50.830;12.082;2022-10-23T16:52:13;1.27;;;1.20;;
11171;SDS011;5642;50.830;12.082;2022-10-23T16:54:49;1.00;;;1.00;;
11171;SDS011;5642;50.830;12.082;2022-10-23T17:00:10;1.30;;;1.23;;
11171;SDS011;5642;50.830;12.082;2022-10-23T17:02:37;1.50;;;1.40;;
11171;SDS011;5642;50.830;12.082;2022-10-23T17:05:03;1.75;;;1.65;;
11171;SDS011;5642;50.830;12.082;2022-10-23T17:07:36;1.70;;;1.60;;
11171;SDS011;5642;50.830;12.082;2022-10-23T17:10:18;2.53;;;1.77;;
11171;SDS011;5642;50.830;12.082;2022-10-23T17:20:19;4.15;;;2.15;;
11171;SDS011;5642;50.830;12.082;2022-10-23T17:22:45;3.40;;;2.47;;
11171;SDS011;5642;50.830;12.082;2022-10-23T17:25:11;2.47;;;2.28;;
11171;SDS011;5642;50.830;12.082;2022-10-23T17:27:37;2.00;;;1.90;;
11171;SDS011;5642;50.830;12.082;2022-10-23T17:30:04;1.80;;;1.70;;
11171;SDS011;5642;50.830;12.082;2022-10-23T17:32:33;1.92;;;1.80;;
11171;SDS011;5642;50.830;12.082;2022-10-23T17:35:00;1.85;;;1.60;;
11171;SDS011;5642;50.830;12.082;2022-10-23T17:37:29;1.48;;;1.38;;
11171;SDS011;5642;50.830;12.082;2022-10-23T17:39:55;1.50;;;1.40;;
11171;SDS011;5642;50.830;12.082;2022-10-23T17:42:23;1.30;;;1.20;;
11171;SDS011;5642;50.830;12.082;2022-10-23T17:44:50;1.17;;;1.08;;
11171;SDS011;5642;50.830;12.082;2022-10-23T17:47:16;1.20;;;1.00;;
11171;SDS011;5642;50.830;12.082;2022-10-23T17:49:42;1.63;;;1.20;;
11171;SDS011;5642;50.830;12.082;2022-10-23T17:52:09;1.50;;;1.15;;
11171;SDS011;5642;50.830;12.082;2022-10-23T17:54:39;2.03;;;0.98;;
11171;SDS011;5642;50.830;12.082;2022-10-23T17:57:05;1.60;;;1.10;;